Time,TemperatureF,DewpointF,PressureIn,WindDirection,WindDirectionDegrees,WindSpeedMPH,WindSpeedGustMPH,Humidity,HourlyPrecipIn,Conditions,Clouds,dailyrainin,SoftwareType,DateUTC
2013-01-21 00:05:00,69.2,50.8,30.03,NNE,22,1.0,5.0,52,0.22,,,-99.99,WeatherLink 5.5,2013-01-21 05:05:00,
2013-01-21 00:10:00,68.9,50.5,30.02,NNE,22,2.0,6.0,52,0.22,,,-99.99,WeatherLink 5.5,2013-01-21 05:10:00,
2013-01-21 00:15:00,68.8,51.0,30.04,NE,45,0.0,5.0,53,0.22,,,-99.99,WeatherLink 5.5,2013-01-21 05:15:00,
2013-01-21 00:20:00,68.7,50.9,30.02,NE,45,1.0,5.0,53,0.22,,,-99.99,WeatherLink 5.5,2013-01-21 05:20:00,
2013-01-21 00:25:00,68.6,50.8,30.05,NE,45,2.0,6.0,53,0.22,,,-99.99,WeatherLink 5.5,2013-01-21 05:25:00,
2013-01-21 00:30:00,68.5,51.2,30.01,NE,45,0.0,5.0,54,0.21,,,-99.99,WeatherLink 5.5,2013-01-21 05:30:00,
2013-01-21 00:35:00,68.5,51.2,30.06,NE,45,1.0,4.0,54,0.14,,,-99.99,WeatherLink 5.5,2013-01-21 05:35:00,
2013-01-21 00:40:00,68.5,51.2,30.03,NE,45,0.0,4.0,54,0.10,,,-99.99,WeatherLink 5.5,2013-01-21 05:40:00,
2013-01-21 00:45:00,68.5,51.7,30.04,North,-999,0.0,0.0,55,0.07,,,-99.99,WeatherLink 5.5,2013-01-21 05:45:00,
2013-01-21 00:50:00,68.5,51.7,30.03,NE,45,0.0,1.0,55,0.04,,,-99.99,WeatherLink 5.5,2013-01-21 05:50:00,
2013-01-21 00:55:00,68.5,51.7,30.04,North,-999,0.0,0.0,55,0.04,,,-99.99,WeatherLink 5.5,2013-01-21 05:55:00,
2013-01-21 01:00:00,68.5,51.7,30.02,North,-999,0.0,0.0,55,0.02,,,-99.99,WeatherLink 5.5,2013-01-21 06:00:00,
2013-01-21 01:05:00,68.5,51.7,30.03,NE,45,0.0,1.0,55,0.01,,,-99.99,WeatherLink 5.5,2013-01-21 06:05:00,
2013-01-21 01:10:00,68.5,52.2,30.04,NE,45,0.0,4.0,56,0.01,,,-99.99,WeatherLink 5.5,2013-01-21 06:10:00,
2013-01-21 01:15:00,68.4,52.1,30.00,NE,45,1.0,3.0,56,0.01,,,-99.99,WeatherLink 5.5,2013-01-21 06:15:00,
2013-01-21 01:20:00,68.3,52.0,30.02,NE,45,1.0,4.0,56,0.01,,,-99.99,WeatherLink 5.5,2013-01-21 06:20:00,
2013-01-21 01:25:00,68.2,51.9,30.00,North,-999,0.0,0.0,56,0.01,,,-99.99,WeatherLink 5.5,2013-01-21 06:25:00,
2013-01-21 01:30:00,68.1,51.8,30.02,North,-999,0.0,0.0,56,0.01,,,-99.99,WeatherLink 5.5,2013-01-21 06:30:00,
2013-01-21 01:35:00,68.0,51.7,30.01,NE,45,0.0,2.0,56,0.01,,,-99.99,WeatherLink 5.5,2013-01-21 06:35:00,
2013-01-21 01:40:00,67.9,51.6,30.03,North,-999,0.0,0.0,56,0.01,,,-99.99,WeatherLink 5.5,2013-01-21 06:40:00,
2013-01-21 01:45:00,67.7,51.4,30.03,North,-999,0.0,0.0,56,0.01,,,-99.99,WeatherLink 5.5,2013-01-21 06:45:00,
2013-01-21 01:50:00,67.7,51.4,30.01,North,-999,0.0,0.0,56,0.01,,,-99.99,WeatherLink 5.5,2013-01-21 06:50:00,
2013-01-21 01:55:00,67.5,51.2,30.04,North,-999,0.0,0.0,56,0.00,,,-99.99,WeatherLink 5.5,2013-01-21 06:55:00,
2013-01-21 02:00:00,67.4,51.6,29.99,North,-999,0.0,0.0,57,0.00,,,-99.99,WeatherLink 5.5,2013-01-21 07:00:00,
2013-01-21 02:05:00,67.3,51.5,30.00,North,-999,0.0,0.0,57,0.00,,,-99.99,WeatherLink 5.5,2013-01-21 07:05:00,
2013-01-21 02:10:00,67.2,51.4,30.00,North,-999,0.0,0.0,57,0.00,,,-99.99,WeatherLink 5.5,2013-01-21 07:10:00,
2013-01-21 02:15:00,67.1,51.4,30.00,North,-999,0.0,0.0,57,0.00,,,-99.99,WeatherLink 5.5,2013-01-21 07:15:00,
2013-01-21 02:20:00,67.0,51.3,30.02,North,-999,0.0,0.0,57,0.00,,,-99.99,WeatherLink 5.5,2013-01-21 07:20:00,
2013-01-21 02:25:00,66.9,51.2,30.00,North,-999,0.0,0.0,57,0.00,,,-99.99,WeatherLink 5.5,2013-01-21 07:25:00,
2013-01-21 02:30:00,66.8,51.1,29.99,North,-999,0.0,0.0,57,0.00,,,-99.99,WeatherLink 5.5,2013-01-21 07:30:00,
2013-01-21 02:35:00,66.6,50.9,30.00,North,-999,0.0,0.0,57,0.00,,,-99.99,WeatherLink 5.5,2013-01-21 07:35:00,
2013-01-21 02:40:00,66.4,50.7,30.00,North,-999,0.0,0.0,57,0.00,,,-99.99,WeatherLink 5.5,2013-01-21 07:40:00,
2013-01-21 02:45:00,66.3,50.6,30.02,North,-999,0.0,0.0,57,0.00,,,-99.99,WeatherLink 5.5,2013-01-21 07:45:00,
2013-01-21 02:50:00,66.2,50.5,29.99,North,-999,0.0,0.0,57,0.00,,,-99.99,WeatherLink 5.5,2013-01-21 07:50:00,
2013-01-21 02:55:00,66.2,51.0,30.02,North,-999,0.0,0.0,58,0.00,,,-99.99,WeatherLink 5.5,2013-01-21 07:55:00,
2013-01-21 03:00:00,66.2,51.0,30.01,North,-999,0.0,0.0,58,0.00,,,-99.99,WeatherLink 5.5,2013-01-21 08:00:00,
2013-01-21 03:05:00,66.2,51.0,30.04,North,-999,0.0,0.0,58,0.00,,,-99.99,WeatherLink 5.5,2013-01-21 08:05:00,
2013-01-21 03:10:00,66.3,51.1,30.03,North,-999,0.0,0.0,58,0.00,,,-99.99,WeatherLink 5.5,2013-01-21 08:10:00,
2013-01-21 03:15:00,66.4,51.6,30.01,North,-999,0.0,0.0,59,0.00,,,-99.99,WeatherLink 5.5,2013-01-21 08:15:00,
2013-01-21 03:20:00,66.5,51.7,30.03,North,-999,0.0,0.0,59,0.00,,,-99.99,WeatherLink 5.5,2013-01-21 08:20:00,
2013-01-21 03:25:00,66.6,51.8,29.99,North,-999,0.0,0.0,59,0.00,,,-99.99,WeatherLink 5.5,2013-01-21 08:25:00,
2013-01-21 03:30:00,66.7,52.4,30.00,NE,45,0.0,2.0,60,0.00,,,-99.99,WeatherLink 5.5,2013-01-21 08:30:00,
2013-01-21 03:35:00,66.7,52.4,30.00,NE,45,0.0,2.0,60,0.00,,,-99.99,WeatherLink 5.5,2013-01-21 08:35:00,
2013-01-21 03:40:00,66.8,52.5,30.00,North,-999,0.0,0.0,60,0.00,,,-99.99,WeatherLink 5.5,2013-01-21 08:40:00,
2013-01-21 03:45:00,66.8,52.5,29.97,North,-999,0.0,0.0,60,0.00,,,-99.99,WeatherLink 5.5,2013-01-21 08:45:00,
2013-01-21 03:50:00,66.8,52.5,29.99,North,-999,0.0,0.0,60,0.00,,,-99.99,WeatherLink 5.5,2013-01-21 08:50:00,
2013-01-21 03:55:00,66.8,52.9,29.99,North,-999,0.0,0.0,61,0.00,,,-99.99,WeatherLink 5.5,2013-01-21 08:55:00,
2013-01-21 04:00:00,66.7,52.8,30.00,North,-999,0.0,0.0,61,0.00,,,-99.99,WeatherLink 5.5,2013-01-21 09:00:00,
2013-01-21 04:05:00,66.6,52.7,30.00,North,-999,0.0,0.0,61,0.00,,,-99.99,WeatherLink 5.5,2013-01-21 09:05:00,
2013-01-21 04:10:00,66.6,52.7,30.00,North,-999,0.0,0.0,61,0.00,,,-99.99,WeatherLink 5.5,2013-01-21 09:10:00,
2013-01-21 04:15:00,66.4,52.5,29.99,North,-999,0.0,0.0,61,0.00,,,-99.99,WeatherLink 5.5,2013-01-21 09:15:00,
2013-01-21 04:20:00,66.3,52.4,29.99,North,-999,0.0,0.0,61,0.00,,,-99.99,WeatherLink 5.5,2013-01-21 09:20:00,
2013-01-21 04:25:00,66.3,52.4,29.99,North,-999,0.0,0.0,61,0.00,,,-99.99,WeatherLink 5.5,2013-01-21 09:25:00,
2013-01-21 04:30:00,66.2,52.3,30.01,North,-999,0.0,0.0,61,0.00,,,-99.99,WeatherLink 5.5,2013-01-21 09:30:00,
2013-01-21 04:35:00,66.1,52.3,30.00,North,-999,0.0,0.0,61,0.00,,,-99.99,WeatherLink 5.5,2013-01-21 09:35:00,
2013-01-21 04:40:00,66.0,52.2,29.99,North,-999,0.0,0.0,61,0.00,,,-99.99,WeatherLink 5.5,2013-01-21 09:40:00,
2013-01-21 04:45:00,66.0,52.2,29.98,North,-999,0.0,0.0,61,0.00,,,-99.99,WeatherLink 5.5,2013-01-21 09:45:00,
2013-01-21 04:50:00,66.1,52.3,30.01,North,-999,0.0,0.0,61,0.00,,,-99.99,WeatherLink 5.5,2013-01-21 09:50:00,
2013-01-21 04:55:00,66.1,52.7,29.99,North,-999,0.0,0.0,62,0.00,,,-99.99,WeatherLink 5.5,2013-01-21 09:55:00,
2013-01-21 05:00:00,66.2,52.8,29.99,North,-999,0.0,0.0,62,0.00,,,-99.99,WeatherLink 5.5,2013-01-21 10:00:00,
2013-01-21 05:05:00,66.1,52.7,29.98,North,-999,0.0,0.0,62,0.00,,,-99.99,WeatherLink 5.5,2013-01-21 10:05:00,
2013-01-21 05:10:00,66.0,52.6,29.98,North,-999,0.0,0.0,62,0.00,,,-99.99,WeatherLink 5.5,2013-01-21 10:10:00,
2013-01-21 05:15:00,66.1,52.7,29.99,North,-999,0.0,0.0,62,0.00,,,-99.99,WeatherLink 5.5,2013-01-21 10:15:00,
2013-01-21 05:20:00,66.1,52.7,29.99,North,-999,0.0,0.0,62,0.00,,,-99.99,WeatherLink 5.5,2013-01-21 10:20:00,
2013-01-21 05:25:00,66.0,52.6,29.99,North,-999,0.0,0.0,62,0.00,,,-99.99,WeatherLink 5.5,2013-01-21 10:25:00,
2013-01-21 05:30:00,65.9,52.5,29.99,North,-999,0.0,0.0,62,0.00,,,-99.99,WeatherLink 5.5,2013-01-21 10:30:00,
2013-01-21 05:35:00,65.8,52.4,29.97,North,-999,0.0,0.0,62,0.00,,,-99.99,WeatherLink 5.5,2013-01-21 10:35:00,
2013-01-21 05:40:00,65.8,52.4,29.99,North,-999,0.0,0.0,62,0.00,,,-99.99,WeatherLink 5.5,2013-01-21 10:40:00,
2013-01-21 05:45:00,65.9,52.9,30.00,North,-999,0.0,0.0,63,0.00,,,-99.99,WeatherLink 5.5,2013-01-21 10:45:00,
2013-01-21 05:50:00,65.9,52.9,30.03,North,-999,0.0,0.0,63,0.00,,,-99.99,WeatherLink 5.5,2013-01-21 10:50:00,
2013-01-21 05:55:00,66.0,53.0,29.99,North,-999,0.0,0.0,63,0.00,,,-99.99,WeatherLink 5.5,2013-01-21 10:55:00,
2013-01-21 06:00:00,66.0,53.0,29.99,North,-999,0.0,0.0,63,0.00,,,-99.99,WeatherLink 5.5,2013-01-21 11:00:00,
2013-01-21 06:05:00,65.8,52.9,29.99,North,-999,0.0,0.0,63,0.00,,,-99.99,WeatherLink 5.5,2013-01-21 11:05:00,
2013-01-21 06:10:00,65.7,52.8,30.00,North,-999,0.0,0.0,63,0.00,,,-99.99,WeatherLink 5.5,2013-01-21 11:10:00,
2013-01-21 06:15:00,65.7,52.8,30.00,North,-999,0.0,0.0,63,0.00,,,-99.99,WeatherLink 5.5,2013-01-21 11:15:00,
2013-01-21 06:20:00,65.6,52.7,30.00,North,-999,0.0,0.0,63,0.00,,,-99.99,WeatherLink 5.5,2013-01-21 11:20:00,
2013-01-21 06:25:00,65.6,52.7,29.99,North,-999,0.0,0.0,63,0.00,,,-99.99,WeatherLink 5.5,2013-01-21 11:25:00,
2013-01-21 06:30:00,65.5,53.0,29.98,North,-999,0.0,0.0,64,0.00,,,-99.99,WeatherLink 5.5,2013-01-21 11:30:00,
2013-01-21 06:35:00,65.4,52.9,30.00,North,-999,0.0,0.0,64,0.00,,,-99.99,WeatherLink 5.5,2013-01-21 11:35:00,
2013-01-21 06:40:00,65.4,52.9,29.99,North,-999,0.0,0.0,64,0.00,,,-99.99,WeatherLink 5.5,2013-01-21 11:40:00,
2013-01-21 06:45:00,65.3,52.8,30.00,North,-999,0.0,0.0,64,0.00,,,-99.99,WeatherLink 5.5,2013-01-21 11:45:00,
2013-01-21 06:50:00,65.2,52.7,29.99,North,-999,0.0,0.0,64,0.00,,,-99.99,WeatherLink 5.5,2013-01-21 11:50:00,
2013-01-21 06:55:00,65.1,52.6,30.00,North,-999,0.0,0.0,64,0.00,,,-99.99,WeatherLink 5.5,2013-01-21 11:55:00,
2013-01-21 07:00:00,65.1,52.6,30.00,North,-999,0.0,0.0,64,0.00,,,-99.99,WeatherLink 5.5,2013-01-21 12:00:00,
2013-01-21 07:05:00,65.0,52.5,30.01,North,-999,0.0,0.0,64,0.00,,,-99.99,WeatherLink 5.5,2013-01-21 12:05:00,
2013-01-21 07:10:00,65.0,52.5,30.03,North,-999,0.0,0.0,64,0.00,,,-99.99,WeatherLink 5.5,2013-01-21 12:10:00,
2013-01-21 07:15:00,64.9,52.4,30.01,North,-999,0.0,0.0,64,0.00,,,-99.99,WeatherLink 5.5,2013-01-21 12:15:00,
2013-01-21 07:20:00,64.9,52.4,30.00,North,-999,0.0,0.0,64,0.00,,,-99.99,WeatherLink 5.5,2013-01-21 12:20:00,
2013-01-21 07:25:00,64.9,52.4,30.01,North,-999,0.0,0.0,64,0.00,,,-99.99,WeatherLink 5.5,2013-01-21 12:25:00,
2013-01-21 07:30:00,64.8,52.3,30.00,North,-999,0.0,0.0,64,0.00,,,-99.99,WeatherLink 5.5,2013-01-21 12:30:00,
2013-01-21 07:35:00,64.8,52.3,30.00,North,-999,0.0,0.0,64,0.00,,,-99.99,WeatherLink 5.5,2013-01-21 12:35:00,
2013-01-21 07:40:00,64.9,52.4,30.00,North,-999,0.0,0.0,64,0.00,,,-99.99,WeatherLink 5.5,2013-01-21 12:40:00,
2013-01-21 07:45:00,64.9,52.8,30.00,North,-999,0.0,0.0,65,0.00,,,-99.99,WeatherLink 5.5,2013-01-21 12:45:00,
2013-01-21 07:50:00,65.1,53.0,30.00,North,-999,0.0,0.0,65,0.00,,,-99.99,WeatherLink 5.5,2013-01-21 12:50:00,
2013-01-21 07:55:00,65.3,53.2,30.00,North,-999,0.0,0.0,65,0.00,,,-99.99,WeatherLink 5.5,2013-01-21 12:55:00,
2013-01-21 08:00:00,65.6,53.5,30.01,North,-999,0.0,0.0,65,0.00,,,-99.99,WeatherLink 5.5,2013-01-21 13:00:00,
2013-01-21 08:05:00,65.8,53.7,30.02,North,-999,0.0,0.0,65,0.00,,,-99.99,WeatherLink 5.5,2013-01-21 13:05:00,
2013-01-21 08:10:00,66.1,54.4,30.03,North,-999,0.0,0.0,66,0.00,,,-99.99,WeatherLink 5.5,2013-01-21 13:10:00,
2013-01-21 08:15:00,66.4,54.7,30.03,North,-999,0.0,0.0,66,0.00,,,-99.99,WeatherLink 5.5,2013-01-21 13:15:00,
2013-01-21 08:20:00,66.7,55.0,30.03,North,-999,0.0,0.0,66,0.00,,,-99.99,WeatherLink 5.5,2013-01-21 13:20:00,
2013-01-21 08:25:00,67.0,55.3,30.03,North,-999,0.0,0.0,66,0.00,,,-99.99,WeatherLink 5.5,2013-01-21 13:25:00,
2013-01-21 08:30:00,67.5,56.2,30.03,North,-999,0.0,0.0,67,0.00,,,-99.99,WeatherLink 5.5,2013-01-21 13:30:00,
2013-01-21 08:35:00,68.0,56.6,30.03,North,-999,0.0,0.0,67,0.00,,,-99.99,WeatherLink 5.5,2013-01-21 13:35:00,
2013-01-21 08:40:00,68.4,57.0,30.05,North,-999,0.0,0.0,67,0.00,,,-99.99,WeatherLink 5.5,2013-01-21 13:40:00,
2013-01-21 08:45:00,68.6,57.2,30.03,North,-999,0.0,0.0,67,0.00,,,-99.99,WeatherLink 5.5,2013-01-21 13:45:00,
2013-01-21 08:50:00,68.8,57.4,30.05,North,-999,0.0,0.0,67,0.00,,,-99.99,WeatherLink 5.5,2013-01-21 13:50:00,
2013-01-21 08:55:00,68.9,57.9,30.03,North,-999,0.0,0.0,68,0.00,,,-99.99,WeatherLink 5.5,2013-01-21 13:55:00,
2013-01-21 09:00:00,69.0,58.0,30.03,North,-999,0.0,0.0,68,0.00,,,-99.99,WeatherLink 5.5,2013-01-21 14:00:00,
2013-01-21 09:05:00,69.3,58.3,30.06,North,-999,0.0,0.0,68,0.00,,,-99.99,WeatherLink 5.5,2013-01-21 14:05:00,
2013-01-21 09:10:00,69.8,59.2,30.04,NE,45,1.0,9.0,69,0.00,,,-99.99,WeatherLink 5.5,2013-01-21 14:10:00,
2013-01-21 09:15:00,70.2,59.6,30.03,East,90,1.0,5.0,69,0.00,,,-99.99,WeatherLink 5.5,2013-01-21 14:15:00,
2013-01-21 09:20:00,70.2,59.6,30.04,North,-999,0.0,0.0,69,0.00,,,-99.99,WeatherLink 5.5,2013-01-21 14:20:00,
2013-01-21 09:25:00,70.3,59.6,30.04,East,90,0.0,2.0,69,0.00,,,-99.99,WeatherLink 5.5,2013-01-21 14:25:00,
2013-01-21 09:30:00,70.7,60.0,30.05,East,90,0.0,4.0,69,0.00,,,-99.99,WeatherLink 5.5,2013-01-21 14:30:00,
2013-01-21 09:35:00,71.1,60.8,30.04,East,90,0.0,4.0,70,0.00,,,-99.99,WeatherLink 5.5,2013-01-21 14:35:00,
2013-01-21 09:40:00,71.4,61.1,30.04,East,90,0.0,5.0,70,0.00,,,-99.99,WeatherLink 5.5,2013-01-21 14:40:00,
2013-01-21 09:45:00,71.8,61.5,30.04,East,90,0.0,4.0,70,0.00,,,-99.99,WeatherLink 5.5,2013-01-21 14:45:00,
2013-01-21 09:50:00,72.3,62.0,30.05,East,90,1.0,5.0,70,0.00,,,-99.99,WeatherLink 5.5,2013-01-21 14:50:00,
2013-01-21 09:55:00,72.8,62.4,30.05,East,90,0.0,4.0,70,0.00,,,-99.99,WeatherLink 5.5,2013-01-21 14:55:00,
2013-01-21 10:00:00,73.2,62.8,30.04,East,90,0.0,1.0,70,0.00,,,-99.99,WeatherLink 5.5,2013-01-21 15:00:00,
2013-01-21 10:05:00,73.5,63.1,30.05,North,-999,0.0,1.0,70,0.00,,,-99.99,WeatherLink 5.5,2013-01-21 15:05:00,
2013-01-21 10:10:00,73.7,63.3,30.04,East,90,2.0,7.0,70,0.00,,,-99.99,WeatherLink 5.5,2013-01-21 15:10:00,
2013-01-21 10:15:00,73.9,63.5,30.04,East,90,2.0,7.0,70,0.00,,,-99.99,WeatherLink 5.5,2013-01-21 15:15:00,
2013-01-21 10:20:00,74.1,63.3,30.05,East,90,2.0,6.0,69,0.00,,,-99.99,WeatherLink 5.5,2013-01-21 15:20:00,
2013-01-21 10:25:00,74.4,63.6,30.03,East,90,2.0,7.0,69,0.00,,,-99.99,WeatherLink 5.5,2013-01-21 15:25:00,
2013-01-21 10:30:00,74.8,63.9,30.04,East,90,1.0,4.0,69,0.00,,,-99.99,WeatherLink 5.5,2013-01-21 15:30:00,
2013-01-21 10:35:00,75.2,64.3,30.05,East,90,0.0,4.0,69,0.00,,,-99.99,WeatherLink 5.5,2013-01-21 15:35:00,
2013-01-21 10:40:00,75.5,64.2,30.05,East,90,1.0,6.0,68,0.00,,,-99.99,WeatherLink 5.5,2013-01-21 15:40:00,
2013-01-21 10:45:00,75.8,64.5,30.04,East,90,1.0,8.0,68,0.00,,,-99.99,WeatherLink 5.5,2013-01-21 15:45:00,
2013-01-21 10:50:00,76.2,64.9,30.05,East,90,1.0,4.0,68,0.00,,,-99.99,WeatherLink 5.5,2013-01-21 15:50:00,
2013-01-21 10:55:00,76.0,64.2,30.04,East,90,1.0,4.0,67,0.00,,,-99.99,WeatherLink 5.5,2013-01-21 15:55:00,
2013-01-21 11:00:00,75.6,63.4,30.04,North,-999,0.0,1.0,66,0.00,,,-99.99,WeatherLink 5.5,2013-01-21 16:00:00,
2013-01-21 11:05:00,75.3,62.7,30.06,North,-999,0.0,1.0,65,0.00,,,-99.99,WeatherLink 5.5,2013-01-21 16:05:00,
2013-01-21 11:10:00,75.2,62.6,30.03,North,-999,0.0,0.0,65,0.00,,,-99.99,WeatherLink 5.5,2013-01-21 16:10:00,
2013-01-21 11:15:00,75.3,62.7,30.03,East,90,0.0,3.0,65,0.00,,,-99.99,WeatherLink 5.5,2013-01-21 16:15:00,
2013-01-21 11:20:00,75.8,63.2,30.04,East,90,1.0,6.0,65,0.00,,,-99.99,WeatherLink 5.5,2013-01-21 16:20:00,
2013-01-21 11:25:00,76.4,63.8,30.03,SE,135,3.0,10.0,65,0.00,,,-99.99,WeatherLink 5.5,2013-01-21 16:25:00,
2013-01-21 11:30:00,77.2,64.1,30.05,SE,135,1.0,8.0,64,0.00,,,-99.99,WeatherLink 5.5,2013-01-21 16:30:00,
2013-01-21 11:35:00,77.3,64.2,30.03,SE,135,1.0,6.0,64,0.00,,,-99.99,WeatherLink 5.5,2013-01-21 16:35:00,
2013-01-21 11:40:00,77.3,63.7,30.03,SE,135,0.0,3.0,63,0.00,,,-99.99,WeatherLink 5.5,2013-01-21 16:40:00,
2013-01-21 11:45:00,77.1,63.1,30.03,SE,135,1.0,6.0,62,0.00,,,-99.99,WeatherLink 5.5,2013-01-21 16:45:00,
2013-01-21 11:50:00,76.7,62.7,30.04,North,-999,0.0,1.0,62,0.00,,,-99.99,WeatherLink 5.5,2013-01-21 16:50:00,
2013-01-21 11:55:00,76.6,62.1,30.04,SE,135,0.0,5.0,61,0.00,,,-99.99,WeatherLink 5.5,2013-01-21 16:55:00,
2013-01-21 12:00:00,76.7,62.2,30.04,SE,135,1.0,6.0,61,0.00,,,-99.99,WeatherLink 5.5,2013-01-21 17:00:00,
2013-01-21 12:05:00,76.6,62.1,30.02,SE,135,0.0,1.0,61,0.00,,,-99.99,WeatherLink 5.5,2013-01-21 17:05:00,
2013-01-21 12:10:00,76.6,61.7,30.05,SE,135,0.0,1.0,60,0.00,,,-99.99,WeatherLink 5.5,2013-01-21 17:10:00,
2013-01-21 12:15:00,76.5,61.6,30.02,SE,135,0.0,3.0,60,0.00,,,-99.99,WeatherLink 5.5,2013-01-21 17:15:00,
2013-01-21 12:20:00,76.6,61.7,30.02,SE,135,0.0,1.0,60,0.00,,,-99.99,WeatherLink 5.5,2013-01-21 17:20:00,
2013-01-21 12:25:00,76.8,61.9,30.02,SE,135,0.0,4.0,60,0.00,,,-99.99,WeatherLink 5.5,2013-01-21 17:25:00,
2013-01-21 12:30:00,76.9,61.5,29.99,SE,135,0.0,1.0,59,0.00,,,-99.99,WeatherLink 5.5,2013-01-21 17:30:00,
2013-01-21 12:35:00,77.0,61.6,30.00,SE,135,0.0,1.0,59,0.00,,,-99.99,WeatherLink 5.5,2013-01-21 17:35:00,
2013-01-21 12:40:00,77.0,61.6,29.99,SE,135,0.0,1.0,59,0.00,,,-99.99,WeatherLink 5.5,2013-01-21 17:40:00,
2013-01-21 12:45:00,77.2,61.8,30.00,SE,135,0.0,5.0,59,0.00,,,-99.99,WeatherLink 5.5,2013-01-21 17:45:00,
2013-01-21 12:50:00,77.2,61.8,29.98,SE,135,1.0,5.0,59,0.00,,,-99.99,WeatherLink 5.5,2013-01-21 17:50:00,
2013-01-21 12:55:00,77.3,61.9,30.01,SE,135,2.0,9.0,59,0.00,,,-99.99,WeatherLink 5.5,2013-01-21 17:55:00,
2013-01-21 13:00:00,77.2,61.3,30.01,SE,135,1.0,7.0,58,0.00,,,-99.99,WeatherLink 5.5,2013-01-21 18:00:00,
2013-01-21 13:05:00,77.1,61.2,30.02,SE,135,0.0,5.0,58,0.00,,,-99.99,WeatherLink 5.5,2013-01-21 18:05:00,
2013-01-21 13:10:00,76.9,61.0,29.97,SE,135,2.0,7.0,58,0.00,,,-99.99,WeatherLink 5.5,2013-01-21 18:10:00,
2013-01-21 13:15:00,76.7,60.8,30.00,SE,135,0.0,5.0,58,0.00,,,-99.99,WeatherLink 5.5,2013-01-21 18:15:00,
2013-01-21 13:20:00,76.7,60.8,29.99,SE,135,1.0,4.0,58,0.00,,,-99.99,WeatherLink 5.5,2013-01-21 18:20:00,
2013-01-21 13:25:00,76.8,60.9,29.99,SE,135,1.0,6.0,58,0.00,,,-99.99,WeatherLink 5.5,2013-01-21 18:25:00,
2013-01-21 13:30:00,77.1,61.2,29.99,SE,135,0.0,6.0,58,0.00,,,-99.99,WeatherLink 5.5,2013-01-21 18:30:00,
2013-01-21 13:35:00,77.2,60.8,29.99,SE,135,1.0,7.0,57,0.00,,,-99.99,WeatherLink 5.5,2013-01-21 18:35:00,
2013-01-21 13:40:00,77.0,60.6,29.98,SE,135,2.0,8.0,57,0.00,,,-99.99,WeatherLink 5.5,2013-01-21 18:40:00,
2013-01-21 13:45:00,76.7,60.3,29.97,SE,135,2.0,6.0,57,0.01,,,-99.99,WeatherLink 5.5,2013-01-21 18:45:00,
2013-01-21 13:50:00,76.0,59.7,29.96,SE,135,0.0,1.0,57,0.01,,,-99.99,WeatherLink 5.5,2013-01-21 18:50:00,
2013-01-21 13:55:00,75.4,59.1,29.96,SE,135,0.0,1.0,57,0.01,,,-99.99,WeatherLink 5.5,2013-01-21 18:55:00,
2013-01-21 14:00:00,75.0,58.7,29.98,SE,135,0.0,3.0,57,0.01,,,-99.99,WeatherLink 5.5,2013-01-21 19:00:00,
2013-01-21 14:05:00,75.0,59.2,29.95,SE,135,1.0,5.0,58,0.01,,,-99.99,WeatherLink 5.5,2013-01-21 19:05:00,
2013-01-21 14:10:00,74.9,59.1,29.98,SE,135,0.0,4.0,58,0.01,,,-99.99,WeatherLink 5.5,2013-01-21 19:10:00,
2013-01-21 14:15:00,74.7,58.9,29.97,SE,135,0.0,2.0,58,0.01,,,-99.99,WeatherLink 5.5,2013-01-21 19:15:00,
2013-01-21 14:20:00,74.7,58.9,29.96,SE,135,0.0,4.0,58,0.01,,,-99.99,WeatherLink 5.5,2013-01-21 19:20:00,
2013-01-21 14:25:00,74.5,58.8,29.97,SE,135,0.0,1.0,58,0.01,,,-99.99,WeatherLink 5.5,2013-01-21 19:25:00,
2013-01-21 14:30:00,74.4,59.1,29.96,SE,135,0.0,1.0,59,0.01,,,-99.99,WeatherLink 5.5,2013-01-21 19:30:00,
2013-01-21 14:35:00,74.5,59.2,29.95,SE,135,1.0,5.0,59,0.01,,,-99.99,WeatherLink 5.5,2013-01-21 19:35:00,
2013-01-21 14:40:00,74.5,59.2,29.95,ESE,112,2.0,6.0,59,0.01,,,-99.99,WeatherLink 5.5,2013-01-21 19:40:00,
2013-01-21 14:45:00,74.6,59.3,29.95,ESE,112,1.0,6.0,59,0.00,,,-99.99,WeatherLink 5.5,2013-01-21 19:45:00,
2013-01-21 14:50:00,74.7,59.4,29.95,ESE,112,1.0,5.0,59,0.00,,,-99.99,WeatherLink 5.5,2013-01-21 19:50:00,
2013-01-21 14:55:00,74.9,59.6,29.93,ESE,112,0.0,4.0,59,0.00,,,-99.99,WeatherLink 5.5,2013-01-21 19:55:00,
2013-01-21 15:00:00,75.0,59.7,29.95,ESE,112,1.0,6.0,59,0.00,,,-99.99,WeatherLink 5.5,2013-01-21 20:00:00,
2013-01-21 15:05:00,75.1,59.8,29.94,ESE,112,2.0,6.0,59,0.00,,,-99.99,WeatherLink 5.5,2013-01-21 20:05:00,
2013-01-21 15:10:00,75.2,59.9,29.94,ESE,112,0.0,4.0,59,0.00,,,-99.99,WeatherLink 5.5,2013-01-21 20:10:00,
2013-01-21 15:15:00,75.2,60.4,29.93,ESE,112,2.0,8.0,60,0.00,,,-99.99,WeatherLink 5.5,2013-01-21 20:15:00,
2013-01-21 15:20:00,75.2,60.4,29.95,ESE,112,1.0,4.0,60,0.00,,,-99.99,WeatherLink 5.5,2013-01-21 20:20:00,
2013-01-21 15:25:00,75.1,60.3,29.94,ESE,112,1.0,5.0,60,0.00,,,-99.99,WeatherLink 5.5,2013-01-21 20:25:00,
2013-01-21 15:30:00,75.1,60.3,29.93,ESE,112,0.0,4.0,60,0.00,,,-99.99,WeatherLink 5.5,2013-01-21 20:30:00,
2013-01-21 15:35:00,75.1,60.3,29.94,ESE,112,0.0,3.0,60,0.00,,,-99.99,WeatherLink 5.5,2013-01-21 20:35:00,
2013-01-21 15:40:00,75.0,60.2,29.94,ESE,112,0.0,3.0,60,0.00,,,-99.99,WeatherLink 5.5,2013-01-21 20:40:00,
2013-01-21 15:45:00,74.9,60.1,29.95,ESE,112,0.0,4.0,60,0.00,,,-99.99,WeatherLink 5.5,2013-01-21 20:45:00,
2013-01-21 15:50:00,74.9,60.1,29.98,North,-999,0.0,0.0,60,0.00,,,-99.99,WeatherLink 5.5,2013-01-21 20:50:00,
2013-01-21 15:55:00,74.7,59.9,29.95,ESE,112,0.0,1.0,60,0.02,,,-99.99,WeatherLink 5.5,2013-01-21 20:55:00,
2013-01-21 16:00:00,74.4,59.6,29.96,ESE,112,0.0,3.0,60,0.08,,,-99.99,WeatherLink 5.5,2013-01-21 21:00:00,
2013-01-21 16:05:00,73.9,59.1,29.93,ESE,112,0.0,4.0,60,0.12,,,-99.99,WeatherLink 5.5,2013-01-21 21:05:00,
2013-01-21 16:10:00,73.5,58.8,29.93,ESE,112,0.0,1.0,60,0.13,,,-99.99,WeatherLink 5.5,2013-01-21 21:10:00,
2013-01-21 16:15:00,73.2,58.5,29.96,North,-999,0.0,0.0,60,0.13,,,-99.99,WeatherLink 5.5,2013-01-21 21:15:00,
2013-01-21 16:20:00,73.2,58.9,29.96,ESE,112,1.0,5.0,61,0.13,,,-99.99,WeatherLink 5.5,2013-01-21 21:20:00,
2013-01-21 16:25:00,73.1,58.8,29.94,ESE,112,1.0,5.0,61,0.13,,,-99.99,WeatherLink 5.5,2013-01-21 21:25:00,
2013-01-21 16:30:00,73.0,58.8,29.96,ESE,112,0.0,4.0,61,0.14,,,-99.99,WeatherLink 5.5,2013-01-21 21:30:00,
2013-01-21 16:35:00,72.8,59.0,29.95,ESE,112,0.0,3.0,62,0.14,,,-99.99,WeatherLink 5.5,2013-01-21 21:35:00,
2013-01-21 16:40:00,72.8,59.0,29.95,ESE,112,1.0,5.0,62,0.14,,,-99.99,WeatherLink 5.5,2013-01-21 21:40:00,
2013-01-21 16:45:00,72.8,59.0,29.95,North,-999,0.0,0.0,62,0.14,,,-99.99,WeatherLink 5.5,2013-01-21 21:45:00,
2013-01-21 16:50:00,72.8,59.0,29.97,North,-999,0.0,0.0,62,0.14,,,-99.99,WeatherLink 5.5,2013-01-21 21:50:00,
2013-01-21 16:55:00,72.9,59.6,29.96,North,-999,0.0,0.0,63,0.12,,,-99.99,WeatherLink 5.5,2013-01-21 21:55:00,
2013-01-21 17:00:00,72.9,59.6,29.94,North,-999,0.0,0.0,63,0.06,,,-99.99,WeatherLink 5.5,2013-01-21 22:00:00,
2013-01-21 17:05:00,72.9,59.6,29.95,North,-999,0.0,0.0,63,0.02,,,-99.99,WeatherLink 5.5,2013-01-21 22:05:00,
2013-01-21 17:10:00,73.1,59.8,29.94,North,-999,0.0,0.0,63,0.01,,,-99.99,WeatherLink 5.5,2013-01-21 22:10:00,
2013-01-21 17:15:00,73.1,60.2,29.97,North,-999,0.0,0.0,64,0.01,,,-99.99,WeatherLink 5.5,2013-01-21 22:15:00,
2013-01-21 17:20:00,73.2,60.3,29.96,North,-999,0.0,0.0,64,0.01,,,-99.99,WeatherLink 5.5,2013-01-21 22:20:00,
2013-01-21 17:25:00,73.2,60.3,29.95,North,-999,0.0,0.0,64,0.01,,,-99.99,WeatherLink 5.5,2013-01-21 22:25:00,
2013-01-21 17:30:00,73.1,60.2,29.96,North,-999,0.0,0.0,64,0.00,,,-99.99,WeatherLink 5.5,2013-01-21 22:30:00,
2013-01-21 17:35:00,73.0,60.1,29.95,North,-999,0.0,0.0,64,0.00,,,-99.99,WeatherLink 5.5,2013-01-21 22:35:00,
2013-01-21 17:40:00,72.8,59.9,29.96,North,-999,0.0,0.0,64,0.00,,,-99.99,WeatherLink 5.5,2013-01-21 22:40:00,
2013-01-21 17:45:00,72.5,59.6,29.94,North,-999,0.0,0.0,64,0.00,,,-99.99,WeatherLink 5.5,2013-01-21 22:45:00,
2013-01-21 17:50:00,72.4,60.0,29.96,North,-999,0.0,0.0,65,0.00,,,-99.99,WeatherLink 5.5,2013-01-21 22:50:00,
2013-01-21 17:55:00,72.3,59.9,29.97,North,-999,0.0,0.0,65,0.00,,,-99.99,WeatherLink 5.5,2013-01-21 22:55:00,
2013-01-21 18:00:00,72.3,59.9,29.95,North,-999,0.0,0.0,65,0.00,,,-99.99,WeatherLink 5.5,2013-01-21 23:00:00,
2013-01-21 18:05:00,72.4,60.0,29.98,North,-999,0.0,0.0,65,0.00,,,-99.99,WeatherLink 5.5,2013-01-21 23:05:00,
2013-01-21 18:10:00,72.4,60.0,29.96,North,-999,0.0,0.0,65,0.00,,,-99.99,WeatherLink 5.5,2013-01-21 23:10:00,
2013-01-21 18:15:00,72.4,60.4,29.98,ESE,112,1.0,6.0,66,0.00,,,-99.99,WeatherLink 5.5,2013-01-21 23:15:00,
2013-01-21 18:20:00,72.3,59.9,29.98,SW,225,4.0,8.0,65,0.00,,,-99.99,WeatherLink 5.5,2013-01-21 23:20:00,
2013-01-21 18:25:00,71.8,59.4,29.96,WSW,247,2.0,9.0,65,0.00,,,-99.99,WeatherLink 5.5,2013-01-21 23:25:00,
2013-01-21 18:30:00,71.6,59.2,29.98,WSW,247,2.0,6.0,65,0.00,,,-99.99,WeatherLink 5.5,2013-01-21 23:30:00,
2013-01-21 18:35:00,71.4,59.0,29.97,WSW,247,3.0,11.0,65,0.00,,,-99.99,WeatherLink 5.5,2013-01-21 23:35:00,
2013-01-21 18:40:00,71.2,58.8,29.97,West,270,4.0,11.0,65,0.00,,,-99.99,WeatherLink 5.5,2013-01-21 23:40:00,
2013-01-21 18:45:00,71.2,58.8,29.98,WNW,292,4.0,12.0,65,0.00,,,-99.99,WeatherLink 5.5,2013-01-21 23:45:00,
2013-01-21 18:50:00,71.2,58.8,29.98,NW,315,4.0,9.0,65,0.00,,,-99.99,WeatherLink 5.5,2013-01-21 23:50:00,
2013-01-21 18:55:00,71.3,58.9,29.99,NW,315,1.0,7.0,65,0.00,,,-99.99,WeatherLink 5.5,2013-01-21 23:55:00,
2013-01-21 19:00:00,71.2,58.8,29.98,NW,315,1.0,6.0,65,0.00,,,-99.99,WeatherLink 5.5,2013-01-22 00:00:00,
2013-01-21 19:05:00,71.2,58.8,29.99,WNW,292,1.0,6.0,65,0.00,,,-99.99,WeatherLink 5.5,2013-01-22 00:05:00,
2013-01-21 19:10:00,71.2,58.8,29.98,WNW,292,1.0,7.0,65,0.00,,,-99.99,WeatherLink 5.5,2013-01-22 00:10:00,
2013-01-21 19:15:00,71.1,58.7,29.99,WNW,292,2.0,7.0,65,0.00,,,-99.99,WeatherLink 5.5,2013-01-22 00:15:00,
2013-01-21 19:20:00,71.1,58.7,29.98,WNW,292,2.0,7.0,65,0.00,,,-99.99,WeatherLink 5.5,2013-01-22 00:20:00,
2013-01-21 19:25:00,71.1,58.7,29.98,WNW,292,2.0,6.0,65,0.00,,,-99.99,WeatherLink 5.5,2013-01-22 00:25:00,
2013-01-21 19:30:00,71.1,58.3,30.02,WNW,292,2.0,7.0,64,0.00,,,-99.99,WeatherLink 5.5,2013-01-22 00:30:00,
2013-01-21 19:35:00,71.0,58.2,30.00,WNW,292,1.0,6.0,64,0.00,,,-99.99,WeatherLink 5.5,2013-01-22 00:35:00,
2013-01-21 19:40:00,71.0,58.2,30.00,WNW,292,1.0,7.0,64,0.00,,,-99.99,WeatherLink 5.5,2013-01-22 00:40:00,
2013-01-21 19:45:00,71.1,58.3,30.00,WNW,292,2.0,7.0,64,0.00,,,-99.99,WeatherLink 5.5,2013-01-22 00:45:00,
2013-01-21 19:50:00,71.0,58.2,29.99,WNW,292,0.0,6.0,64,0.00,,,-99.99,WeatherLink 5.5,2013-01-22 00:50:00,
2013-01-21 19:55:00,70.9,57.7,29.99,WNW,292,1.0,5.0,63,0.00,,,-99.99,WeatherLink 5.5,2013-01-22 00:55:00,
2013-01-21 20:00:00,70.8,57.6,29.99,WNW,292,0.0,5.0,63,0.00,,,-99.99,WeatherLink 5.5,2013-01-22 01:00:00,
2013-01-21 20:05:00,70.6,57.4,30.01,WNW,292,0.0,3.0,63,0.00,,,-99.99,WeatherLink 5.5,2013-01-22 01:05:00,
2013-01-21 20:10:00,70.5,57.3,30.01,WNW,292,0.0,2.0,63,0.00,,,-99.99,WeatherLink 5.5,2013-01-22 01:10:00,
2013-01-21 20:15:00,70.5,56.9,30.00,WNW,292,0.0,3.0,62,0.00,,,-99.99,WeatherLink 5.5,2013-01-22 01:15:00,
2013-01-21 20:20:00,70.3,56.7,30.00,North,-999,0.0,1.0,62,0.00,,,-99.99,WeatherLink 5.5,2013-01-22 01:20:00,
2013-01-21 20:25:00,70.1,56.5,29.99,WNW,292,0.0,3.0,62,0.00,,,-99.99,WeatherLink 5.5,2013-01-22 01:25:00,
2013-01-21 20:30:00,69.8,56.2,30.01,WNW,292,0.0,3.0,62,0.00,,,-99.99,WeatherLink 5.5,2013-01-22 01:30:00,
2013-01-21 20:35:00,69.6,56.0,29.99,WNW,292,0.0,4.0,62,0.00,,,-99.99,WeatherLink 5.5,2013-01-22 01:35:00,
2013-01-21 20:40:00,69.4,55.8,30.02,North,-999,0.0,1.0,62,0.00,,,-99.99,WeatherLink 5.5,2013-01-22 01:40:00,
2013-01-21 20:45:00,69.3,55.7,29.99,WNW,292,1.0,6.0,62,0.00,,,-99.99,WeatherLink 5.5,2013-01-22 01:45:00,
2013-01-21 20:50:00,69.2,55.6,30.00,WNW,292,0.0,4.0,62,0.00,,,-99.99,WeatherLink 5.5,2013-01-22 01:50:00,
2013-01-21 20:55:00,69.0,55.4,29.99,North,-999,0.0,1.0,62,0.00,,,-99.99,WeatherLink 5.5,2013-01-22 01:55:00,
2013-01-21 21:00:00,68.8,55.2,30.01,WNW,292,0.0,4.0,62,0.00,,,-99.99,WeatherLink 5.5,2013-01-22 02:00:00,
2013-01-21 21:05:00,68.7,55.2,30.01,WNW,292,0.0,3.0,62,0.00,,,-99.99,WeatherLink 5.5,2013-01-22 02:05:00,
2013-01-21 21:10:00,68.5,55.0,30.01,WNW,292,2.0,7.0,62,0.00,,,-99.99,WeatherLink 5.5,2013-01-22 02:10:00,
2013-01-21 21:15:00,68.4,54.9,30.01,WNW,292,1.0,4.0,62,0.00,,,-99.99,WeatherLink 5.5,2013-01-22 02:15:00,
2013-01-21 21:20:00,68.3,54.8,29.99,WNW,292,0.0,4.0,62,0.00,,,-99.99,WeatherLink 5.5,2013-01-22 02:20:00,
2013-01-21 21:25:00,68.2,54.7,30.01,North,-999,0.0,0.0,62,0.00,,,-99.99,WeatherLink 5.5,2013-01-22 02:25:00,
2013-01-21 21:30:00,68.1,54.6,30.02,North,-999,0.0,0.0,62,0.00,,,-99.99,WeatherLink 5.5,2013-01-22 02:30:00,
2013-01-21 21:35:00,67.9,54.4,30.03,WNW,292,1.0,4.0,62,0.00,,,-99.99,WeatherLink 5.5,2013-01-22 02:35:00,
2013-01-21 21:40:00,67.8,54.3,29.99,North,-999,0.0,1.0,62,0.00,,,-99.99,WeatherLink 5.5,2013-01-22 02:40:00,
2013-01-21 21:45:00,67.6,54.1,30.01,WNW,292,1.0,4.0,62,0.00,,,-99.99,WeatherLink 5.5,2013-01-22 02:45:00,
2013-01-21 21:50:00,67.5,54.0,29.99,WNW,292,0.0,4.0,62,0.00,,,-99.99,WeatherLink 5.5,2013-01-22 02:50:00,
2013-01-21 21:55:00,67.5,54.0,30.02,WNW,292,0.0,2.0,62,0.00,,,-99.99,WeatherLink 5.5,2013-01-22 02:55:00,
2013-01-21 22:00:00,67.3,53.8,30.02,WNW,292,0.0,3.0,62,0.00,,,-99.99,WeatherLink 5.5,2013-01-22 03:00:00,
2013-01-21 22:05:00,67.3,54.3,30.03,North,-999,0.0,0.0,63,0.00,,,-99.99,WeatherLink 5.5,2013-01-22 03:05:00,
2013-01-21 22:10:00,67.1,54.1,30.00,North,-999,0.0,1.0,63,0.00,,,-99.99,WeatherLink 5.5,2013-01-22 03:10:00,
2013-01-21 22:15:00,67.1,54.1,30.00,WNW,292,0.0,4.0,63,0.00,,,-99.99,WeatherLink 5.5,2013-01-22 03:15:00,
2013-01-21 22:20:00,67.0,54.0,30.03,WNW,292,0.0,2.0,63,0.00,,,-99.99,WeatherLink 5.5,2013-01-22 03:20:00,
2013-01-21 22:25:00,67.0,54.0,30.02,WNW,292,0.0,2.0,63,0.00,,,-99.99,WeatherLink 5.5,2013-01-22 03:25:00,
2013-01-21 22:30:00,66.9,54.3,30.02,WNW,292,1.0,6.0,64,0.00,,,-99.99,WeatherLink 5.5,2013-01-22 03:30:00,
2013-01-21 22:35:00,66.9,54.3,30.01,WNW,292,1.0,7.0,64,0.00,,,-99.99,WeatherLink 5.5,2013-01-22 03:35:00,
2013-01-21 22:40:00,66.8,54.2,30.04,WNW,292,2.0,6.0,64,0.00,,,-99.99,WeatherLink 5.5,2013-01-22 03:40:00,
2013-01-21 22:45:00,66.7,54.1,30.01,WNW,292,1.0,7.0,64,0.00,,,-99.99,WeatherLink 5.5,2013-01-22 03:45:00,
2013-01-21 22:50:00,66.6,54.0,30.03,WNW,292,2.0,8.0,64,0.00,,,-99.99,WeatherLink 5.5,2013-01-22 03:50:00,
2013-01-21 22:55:00,66.5,53.9,30.03,WNW,292,1.0,7.0,64,0.00,,,-99.99,WeatherLink 5.5,2013-01-22 03:55:00,
2013-01-21 23:00:00,66.4,53.8,30.02,WNW,292,1.0,6.0,64,0.00,,,-99.99,WeatherLink 5.5,2013-01-22 04:00:00,
2013-01-21 23:05:00,66.3,53.8,30.01,WNW,292,1.0,5.0,64,0.00,,,-99.99,WeatherLink 5.5,2013-01-22 04:05:00,
2013-01-21 23:10:00,66.3,53.8,30.01,WNW,292,1.0,4.0,64,0.00,,,-99.99,WeatherLink 5.5,2013-01-22 04:10:00,
2013-01-21 23:15:00,66.2,53.7,30.01,North,-999,0.0,1.0,64,0.00,,,-99.99,WeatherLink 5.5,2013-01-22 04:15:00,
2013-01-21 23:20:00,66.1,53.6,30.01,WNW,292,0.0,3.0,64,0.00,,,-99.99,WeatherLink 5.5,2013-01-22 04:20:00,
2013-01-21 23:25:00,66.0,53.5,30.02,North,-999,0.0,1.0,64,0.00,,,-99.99,WeatherLink 5.5,2013-01-22 04:25:00,
2013-01-21 23:30:00,65.9,53.4,30.01,North,-999,0.0,0.0,64,0.00,,,-99.99,WeatherLink 5.5,2013-01-22 04:30:00,
2013-01-21 23:35:00,65.8,53.7,30.03,WNW,292,0.0,3.0,65,0.00,,,-99.99,WeatherLink 5.5,2013-01-22 04:35:00,
2013-01-21 23:40:00,65.8,53.7,30.01,WNW,292,0.0,4.0,65,0.00,,,-99.99,WeatherLink 5.5,2013-01-22 04:40:00,
2013-01-21 23:45:00,65.7,53.6,30.01,WNW,292,1.0,5.0,65,0.00,,,-99.99,WeatherLink 5.5,2013-01-22 04:45:00,
2013-01-21 23:50:00,65.7,53.6,30.02,WNW,292,0.0,4.0,65,0.00,,,-99.99,WeatherLink 5.5,2013-01-22 04:50:00,
2013-01-21 23:55:00,65.6,53.5,29.99,WNW,292,0.0,2.0,65,0.00,,,-99.99,WeatherLink 5.5,2013-01-22 04:55:00,